Time;durP1;ratioP1;P1;durP2;ratioP2;P2;SDS_P1;SDS_P2;PMS_P1;PMS_P2;Temp;Humidity;BMP_temperature;BMP_pressure;BME280_temperature;BME280_humidity;BME280_pressure;Samples;Min_cycle;Max_cycle;Signal;HPM_P1;HPM_P2
2023/12/13 00:02:27;;;;;;;3.87;3.57;;;;;;;;;;6000180;29;20390;-70
2023/12/13 00:05:31;;;;;;;3.93;3.73;;;;;;;;;;5999527;29;20326;-70
2023/12/13 00:08:35;;;;;;;3.80;3.60;;;;;;;;;;5999724;29;20302;-70
2023/12/13 00:11:39;;;;;;;4.10;3.80;;;;;;;;;;6008400;29;20302;-70
2023/12/13 00:14:44;;;;;;;3.90;3.70;;;;;;;;;;6021826;29;20292;-69
2023/12/13 00:17:49;;;;;;;3.60;3.40;;;;;;;;;;6021482;29;20400;-69
2023/12/13 00:20:53;;;;;;;4.03;3.83;;;;;;;;;;6021189;29;20309;-70
2023/12/13 00:23:57;;;;;;;3.80;3.70;;;;;;;;;;6019094;29;20382;-69
2023/12/13 00:27:01;;;;;;;4.10;3.90;;;;;;;;;;6028604;29;20296;-70
2023/12/13 00:30:09;;;;;;;3.70;3.50;;;;;;;;;;6021527;29;20305;-69
2023/12/13 00:33:13;;;;;;;3.90;3.70;;;;;;;;;;6021548;29;20294;-69
2023/12/13 00:36:17;;;;;;;3.63;3.43;;;;;;;;;;6021679;29;20323;-69
2023/12/13 00:39:21;;;;;;;3.60;3.50;;;;;;;;;;6021125;29;20311;-69
2023/12/13 00:42:26;;;;;;;3.93;3.70;;;;;;;;;;6021712;29;20296;-69
2023/12/13 00:45:31;;;;;;;5.60;4.00;;;;;;;;;;6021320;29;20365;-70
2023/12/13 00:48:35;;;;;;;4.50;4.20;;;;;;;;;;6021552;29;20332;-69
2023/12/13 00:51:39;;;;;;;3.70;3.60;;;;;;;;;;6013367;29;20303;-69
2023/12/13 00:54:43;;;;;;;3.93;3.70;;;;;;;;;;6020802;29;20304;-69
2023/12/13 00:57:46;;;;;;;4.27;4.07;;;;;;;;;;6021430;29;20301;-70
2023/12/13 01:00:52;;;;;;;4.63;4.30;;;;;;;;;;6021024;29;20309;-70
2023/12/13 01:03:56;;;;;;;4.27;4.07;;;;;;;;;;6034538;29;20293;-69
2023/12/13 01:06:59;;;;;;;3.93;3.70;;;;;;;;;;6020809;29;20313;-70
2023/12/13 01:10:04;;;;;;;4.60;4.30;;;;;;;;;;6020724;29;20322;-70
2023/12/13 01:13:08;;;;;;;4.50;4.17;;;;;;;;;;6000319;29;20595;-70
2023/12/13 01:16:13;;;;;;;5.03;4.70;;;;;;;;;;6006968;29;20309;-71
2023/12/13 01:19:17;;;;;;;4.70;4.43;;;;;;;;;;6020056;29;20302;-70
2023/12/13 01:22:22;;;;;;;4.60;4.30;;;;;;;;;;6010988;29;20289;-68
2023/12/13 01:25:25;;;;;;;4.43;4.03;;;;;;;;;;6020870;29;20313;-70
2023/12/13 01:28:29;;;;;;;4.93;4.57;;;;;;;;;;6034964;29;20502;-70
2023/12/13 01:31:35;;;;;;;4.63;4.20;;;;;;;;;;6024969;29;20332;-70
2023/12/13 01:34:39;;;;;;;4.43;4.03;;;;;;;;;;6025009;29;20303;-70
2023/12/13 01:37:43;;;;;;;4.07;3.87;;;;;;;;;;6025506;29;20564;-69
2023/12/13 01:40:51;;;;;;;4.50;4.20;;;;;;;;;;6025252;29;20571;-70
2023/12/13 01:44:15;;;;;;;4.47;4.20;;;;;;;;;;6023860;29;20301;-69
2023/12/13 01:47:20;;;;;;;4.03;3.83;;;;;;;;;;6025132;29;20308;-70
2023/12/13 01:50:25;;;;;;;4.30;4.10;;;;;;;;;;6024187;29;20302;-69
2023/12/13 01:53:30;;;;;;;4.27;4.07;;;;;;;;;;6025241;29;20292;-70
2023/12/13 01:56:34;;;;;;;4.47;4.17;;;;;;;;;;6025217;29;20298;-70
2023/12/13 01:59:38;;;;;;;4.63;4.33;;;;;;;;;;6016496;29;20304;-69
2023/12/13 02:02:44;;;;;;;4.23;4.03;;;;;;;;;;6025005;29;20297;-69
2023/12/13 02:05:49;;;;;;;4.13;3.93;;;;;;;;;;6024759;29;20294;-69
2023/12/13 02:08:53;;;;;;;4.77;4.10;;;;;;;;;;6023828;29;20302;-69
2023/12/13 02:11:57;;;;;;;4.00;3.80;;;;;;;;;;6012831;29;20498;-69
2023/12/13 02:15:01;;;;;;;4.03;3.83;;;;;;;;;;6001410;29;20310;-71
2023/12/13 02:18:08;;;;;;;4.63;4.33;;;;;;;;;;6024638;29;20330;-69
2023/12/13 02:21:12;;;;;;;4.30;4.10;;;;;;;;;;6024136;29;20350;-70
2023/12/13 02:24:18;;;;;;;4.40;4.20;;;;;;;;;;6023843;29;20595;-70
2023/12/13 02:27:26;;;;;;;4.37;4.07;;;;;;;;;;6016506;29;20307;-70
2023/12/13 02:30:30;;;;;;;4.20;4.00;;;;;;;;;;6024179;29;20296;-69
2023/12/13 02:33:34;;;;;;;4.50;4.23;;;;;;;;;;6024417;29;20306;-70
2023/12/13 02:36:38;;;;;;;3.83;3.53;;;;;;;;;;6024135;29;20345;-70
2023/12/13 02:39:43;;;;;;;4.40;4.20;;;;;;;;;;6023261;29;20307;-70
2023/12/13 02:42:47;;;;;;;4.03;3.77;;;;;;;;;;6024172;29;20308;-71
2023/12/13 02:45:51;;;;;;;4.27;4.07;;;;;;;;;;6023765;29;20291;-70
2023/12/13 02:48:55;;;;;;;4.80;4.40;;;;;;;;;;6023361;29;20329;-70
2023/12/13 02:51:59;;;;;;;4.70;4.40;;;;;;;;;;6024032;29;20312;-70
2023/12/13 02:55:05;;;;;;;4.63;4.33;;;;;;;;;;6023361;29;20311;-70
2023/12/13 02:58:09;;;;;;;5.07;4.67;;;;;;;;;;6023798;29;20313;-69
2023/12/13 03:01:13;;;;;;;5.27;4.87;;;;;;;;;;6023787;29;20306;-70
2023/12/13 03:04:17;;;;;;;4.80;4.50;;;;;;;;;;6023258;29;20374;-70
2023/12/13 03:07:22;;;;;;;4.30;4.10;;;;;;;;;;6023380;29;20302;-70
2023/12/13 03:10:27;;;;;;;4.80;4.50;;;;;;;;;;6022528;29;20300;-70
2023/12/13 03:13:32;;;;;;;4.43;4.13;;;;;;;;;;6001078;29;20303;-70
2023/12/13 03:16:36;;;;;;;4.23;3.93;;;;;;;;;;6011897;29;20301;-69
2023/12/13 03:19:40;;;;;;;4.10;4.00;;;;;;;;;;6022454;29;20547;-69
2023/12/13 03:22:44;;;;;;;4.50;4.30;;;;;;;;;;6023336;29;20292;-70
2023/12/13 03:25:49;;;;;;;4.37;4.10;;;;;;;;;;6022899;29;20296;-69
2023/12/13 03:28:53;;;;;;;4.37;4.07;;;;;;;;;;6022276;29;20481;-73
2023/12/13 03:31:57;;;;;;;4.80;4.40;;;;;;;;;;6022987;29;20611;-69
2023/12/13 03:35:01;;;;;;;4.53;4.23;;;;;;;;;;6022584;29;20313;-70
2023/12/13 03:38:05;;;;;;;4.93;4.53;;;;;;;;;;6023624;29;20295;-70
2023/12/13 03:41:10;;;;;;;4.67;4.37;;;;;;;;;;6022921;29;20348;-69
2023/12/13 03:44:14;;;;;;;4.93;4.60;;;;;;;;;;6022221;29;20290;-70
2023/12/13 03:47:18;;;;;;;4.90;4.50;;;;;;;;;;6023196;29;20298;-70
2023/12/13 03:50:23;;;;;;;4.70;4.50;;;;;;;;;;6022126;29;20320;-69
2023/12/13 03:53:27;;;;;;;5.03;4.63;;;;;;;;;;6022134;29;20308;-70
2023/12/13 03:56:32;;;;;;;5.00;4.67;;;;;;;;;;6021628;29;20333;-69
2023/12/13 03:59:36;;;;;;;3.97;3.87;;;;;;;;;;6020750;29;20490;-69
2023/12/13 04:02:40;;;;;;;4.70;4.40;;;;;;;;;;6020897;29;20318;-70
2023/12/13 04:05:44;;;;;;;4.67;4.40;;;;;;;;;;6009605;29;20294;-70
2023/12/13 04:08:48;;;;;;;4.77;4.47;;;;;;;;;;6009352;29;20312;-70
2023/12/13 04:11:53;;;;;;;5.00;4.70;;;;;;;;;;6018355;29;20268;-69
2023/12/13 04:14:57;;;;;;;4.63;4.33;;;;;;;;;;6006417;29;20295;-70
2023/12/13 04:18:00;;;;;;;4.47;4.27;;;;;;;;;;6021959;29;20302;-70
2023/12/13 04:21:05;;;;;;;4.67;4.33;;;;;;;;;;6015473;29;20302;-69
2023/12/13 04:24:09;;;;;;;4.87;4.53;;;;;;;;;;5999505;29;20307;-69
2023/12/13 04:27:14;;;;;;;4.33;4.03;;;;;;;;;;5999114;29;20629;-69
2023/12/13 04:30:18;;;;;;;4.67;4.30;;;;;;;;;;5998965;29;20245;-69
2023/12/13 04:33:22;;;;;;;4.70;4.37;;;;;;;;;;6000122;29;20295;-70
2023/12/13 04:36:26;;;;;;;4.27;4.03;;;;;;;;;;5999496;29;20298;-69
2023/12/13 04:39:30;;;;;;;4.30;4.10;;;;;;;;;;6028886;29;20484;-69
2023/12/13 04:42:35;;;;;;;4.10;3.80;;;;;;;;;;6021311;29;20520;-69
2023/12/13 04:45:39;;;;;;;4.00;3.80;;;;;;;;;;6021102;29;20306;-69
2023/12/13 04:48:44;;;;;;;4.10;3.90;;;;;;;;;;6021830;29;20581;-70
2023/12/13 04:51:48;;;;;;;4.43;4.20;;;;;;;;;;6021129;29;20300;-70
2023/12/13 04:54:52;;;;;;;4.40;4.20;;;;;;;;;;6021120;29;20321;-69
2023/12/13 04:58:00;;;;;;;4.33;4.13;;;;;;;;;;6021296;29;20305;-70
2023/12/13 05:01:05;;;;;;;4.83;4.43;;;;;;;;;;6021342;29;20306;-70
2023/12/13 05:04:08;;;;;;;5.10;4.70;;;;;;;;;;6021677;29;20305;-70
2023/12/13 05:07:13;;;;;;;4.07;3.77;;;;;;;;;;6021707;29;20310;-69
2023/12/13 05:10:17;;;;;;;4.17;4.00;;;;;;;;;;6021168;29;20310;-69
2023/12/13 05:13:22;;;;;;;4.13;3.93;;;;;;;;;;6007745;29;20297;-70
2023/12/13 05:16:26;;;;;;;5.23;4.17;;;;;;;;;;6009142;29;20300;-70
2023/12/13 05:19:30;;;;;;;4.70;4.40;;;;;;;;;;6021286;29;20302;-69
2023/12/13 05:22:34;;;;;;;4.47;4.17;;;;;;;;;;6021999;29;20480;-69
2023/12/13 05:25:38;;;;;;;4.10;3.83;;;;;;;;;;6021069;29;20322;-69
2023/12/13 05:28:43;;;;;;;4.00;3.80;;;;;;;;;;6021334;29;20296;-70
2023/12/13 05:31:48;;;;;;;4.63;4.43;;;;;;;;;;6021239;29;20306;-69
2023/12/13 05:34:51;;;;;;;3.97;3.77;;;;;;;;;;6020796;29;20306;-69
2023/12/13 05:37:55;;;;;;;4.27;3.97;;;;;;;;;;6020993;29;20293;-70
2023/12/13 05:40:59;;;;;;;3.97;3.77;;;;;;;;;;6020683;29;20305;-70
2023/12/13 05:44:05;;;;;;;4.43;4.10;;;;;;;;;;6020766;29;20297;-70
2023/12/13 05:47:09;;;;;;;4.43;4.03;;;;;;;;;;6020651;29;20302;-69
2023/12/13 05:50:13;;;;;;;3.70;3.50;;;;;;;;;;6020365;29;20317;-69
2023/12/13 05:53:17;;;;;;;4.07;3.87;;;;;;;;;;6020932;29;20298;-69
2023/12/13 05:56:21;;;;;;;3.83;3.73;;;;;;;;;;6020986;29;20490;-69
2023/12/13 05:59:26;;;;;;;3.73;3.53;;;;;;;;;;6020677;29;20260;-69
2023/12/13 06:02:31;;;;;;;3.73;3.63;;;;;;;;;;6020731;29;20306;-70
2023/12/13 06:05:34;;;;;;;4.50;4.13;;;;;;;;;;6020060;29;20302;-70
2023/12/13 06:08:40;;;;;;;4.17;3.97;;;;;;;;;;6020689;29;20309;-68
2023/12/13 06:11:44;;;;;;;4.03;3.80;;;;;;;;;;6018112;29;20297;-68
2023/12/13 06:14:49;;;;;;;3.80;3.60;;;;;;;;;;5997861;29;20360;-69
2023/12/13 06:17:53;;;;;;;4.37;4.00;;;;;;;;;;6021414;29;20309;-69
2023/12/13 06:20:57;;;;;;;4.17;3.87;;;;;;;;;;6031194;29;20310;-69
2023/12/13 06:24:02;;;;;;;3.57;3.47;;;;;;;;;;6029919;29;20304;-70
2023/12/13 06:27:06;;;;;;;3.97;3.77;;;;;;;;;;6022825;29;20477;-70
2023/12/13 06:30:13;;;;;;;3.90;3.60;;;;;;;;;;6024055;29;20310;-69
2023/12/13 06:33:18;;;;;;;3.63;3.53;;;;;;;;;;6007332;29;20299;-69
2023/12/13 06:36:22;;;;;;;3.83;3.53;;;;;;;;;;6024329;29;20603;-70
2023/12/13 06:39:27;;;;;;;3.60;3.50;;;;;;;;;;6024879;29;20607;-69
2023/12/13 06:42:30;;;;;;;3.67;3.40;;;;;;;;;;6016233;29;20313;-70
2023/12/13 06:45:36;;;;;;;3.67;3.57;;;;;;;;;;6023734;29;20298;-69
2023/12/13 06:48:39;;;;;;;3.20;3.10;;;;;;;;;;6024333;29;20302;-68
2023/12/13 06:51:44;;;;;;;3.27;3.27;;;;;;;;;;6023537;29;20599;-70
2023/12/13 06:54:48;;;;;;;3.63;3.47;;;;;;;;;;6015029;29;20310;-70
2023/12/13 06:57:52;;;;;;;3.30;3.17;;;;;;;;;;6024052;29;20300;-69
2023/12/13 07:00:57;;;;;;;3.57;3.37;;;;;;;;;;6023414;29;20290;-69
2023/12/13 07:04:02;;;;;;;3.47;3.33;;;;;;;;;;6023272;29;20605;-69
2023/12/13 07:07:06;;;;;;;3.80;3.47;;;;;;;;;;6009470;29;20302;-70
2023/12/13 07:10:10;;;;;;;3.67;3.57;;;;;;;;;;6000417;29;20607;-70
2023/12/13 07:13:14;;;;;;;3.03;3.03;;;;;;;;;;6013907;29;20311;-69
2023/12/13 07:16:19;;;;;;;3.30;3.20;;;;;;;;;;6014851;29;20611;-69
2023/12/13 07:19:23;;;;;;;3.70;3.50;;;;;;;;;;6022762;29;20302;-69
2023/12/13 07:22:27;;;;;;;3.10;3.00;;;;;;;;;;6022722;29;20304;-69
2023/12/13 07:25:31;;;;;;;3.40;3.30;;;;;;;;;;6023284;29;20329;-69
2023/12/13 07:28:35;;;;;;;3.20;3.10;;;;;;;;;;6022198;29;20304;-70
2023/12/13 07:31:41;;;;;;;2.90;2.80;;;;;;;;;;6022416;29;20309;-69
2023/12/13 07:34:45;;;;;;;3.30;3.20;;;;;;;;;;6022584;29;20313;-69
2023/12/13 07:37:49;;;;;;;2.97;2.90;;;;;;;;;;6022658;29;20482;-70
2023/12/13 07:40:53;;;;;;;2.87;2.77;;;;;;;;;;6022319;29;20609;-69
2023/12/13 07:43:57;;;;;;;2.83;2.73;;;;;;;;;;6022247;29;20329;-68
2023/12/13 07:47:02;;;;;;;2.80;2.70;;;;;;;;;;6021377;29;20294;-68
2023/12/13 07:50:07;;;;;;;2.53;2.53;;;;;;;;;;6022163;29;20302;-68
2023/12/13 07:53:12;;;;;;;2.60;2.50;;;;;;;;;;6022190;29;20296;-69
2023/12/13 07:56:15;;;;;;;2.80;2.70;;;;;;;;;;6022468;29;20306;-69
2023/12/13 07:59:30;;;;;;;2.53;2.53;;;;;;;;;;6021987;29;20306;-69
2023/12/13 08:02:35;;;;;;;2.97;2.90;;;;;;;;;;6022506;29;20336;-70
2023/12/13 08:05:49;;;;;;;2.60;2.50;;;;;;;;;;6021815;29;20309;-69
2023/12/13 08:08:53;;;;;;;3.90;2.50;;;;;;;;;;6011967;29;20305;-69
2023/12/13 08:11:57;;;;;;;2.57;2.47;;;;;;;;;;6018279;29;20615;-69
2023/12/13 08:15:01;;;;;;;2.70;2.60;;;;;;;;;;5999637;29;20471;-69
2023/12/13 08:18:06;;;;;;;2.53;2.43;;;;;;;;;;6009166;29;20300;-68
2023/12/13 08:21:10;;;;;;;2.77;2.67;;;;;;;;;;6021748;29;20492;-68
2023/12/13 08:24:14;;;;;;;3.13;2.90;;;;;;;;;;6022331;29;20519;-69
2023/12/13 08:27:18;;;;;;;2.57;2.57;;;;;;;;;;6021532;29;20290;-69
2023/12/13 08:30:22;;;;;;;2.57;2.47;;;;;;;;;;6011370;29;20312;-70
2023/12/13 08:33:27;;;;;;;2.90;2.80;;;;;;;;;;6021282;29;20471;-70
2023/12/13 08:36:31;;;;;;;2.90;2.80;;;;;;;;;;6021905;29;20301;-70
2023/12/13 08:39:35;;;;;;;2.67;2.57;;;;;;;;;;6021685;29;20309;-69
2023/12/13 08:42:39;;;;;;;2.40;2.30;;;;;;;;;;6018049;29;20297;-69
2023/12/13 08:45:48;;;;;;;2.50;2.50;;;;;;;;;;6025654;29;20309;-69
2023/12/13 08:48:53;;;;;;;2.83;2.73;;;;;;;;;;6021337;29;20615;-69
2023/12/13 08:51:57;;;;;;;2.60;2.50;;;;;;;;;;6019161;29;20304;-70
2023/12/13 08:55:02;;;;;;;3.00;2.70;;;;;;;;;;6028127;29;20306;-70
2023/12/13 08:58:06;;;;;;;2.70;2.60;;;;;;;;;;6021243;29;20293;-69
2023/12/13 09:01:09;;;;;;;2.70;2.60;;;;;;;;;;6021017;29;20597;-70
2023/12/13 09:04:15;;;;;;;3.00;2.90;;;;;;;;;;6021569;29;20301;-70
2023/12/13 09:07:19;;;;;;;3.07;2.87;;;;;;;;;;6020778;29;20320;-70
2023/12/13 09:10:23;;;;;;;2.63;2.53;;;;;;;;;;6020975;29;20299;-70
2023/12/13 09:13:27;;;;;;;2.60;2.50;;;;;;;;;;6006389;29;20317;-71
2023/12/13 09:16:31;;;;;;;2.47;2.37;;;;;;;;;;6009697;29;20302;-70
2023/12/13 09:19:37;;;;;;;2.97;2.77;;;;;;;;;;6020308;29;20501;-70
2023/12/13 09:22:41;;;;;;;2.43;2.33;;;;;;;;;;6020934;29;20297;-69
2023/12/13 09:25:44;;;;;;;2.70;2.60;;;;;;;;;;6020564;29;20301;-70
2023/12/13 09:28:48;;;;;;;2.43;2.40;;;;;;;;;;6020764;29;20312;-69
2023/12/13 09:31:52;;;;;;;2.90;2.80;;;;;;;;;;6020258;29;20353;-70
2023/12/13 09:34:58;;;;;;;3.00;2.90;;;;;;;;;;6017991;29;20301;-70
2023/12/13 09:38:04;;;;;;;2.87;2.77;;;;;;;;;;6024911;29;20479;-69
2023/12/13 09:41:09;;;;;;;2.80;2.70;;;;;;;;;;6027054;29;20307;-70
2023/12/13 09:44:32;;;;;;;2.83;2.73;;;;;;;;;;6021072;29;20358;-69
2023/12/13 09:47:37;;;;;;;2.50;2.40;;;;;;;;;;6020524;29;20540;-69
2023/12/13 09:50:43;;;;;;;2.83;2.70;;;;;;;;;;6022074;29;20294;-69
2023/12/13 09:53:49;;;;;;;2.80;2.70;;;;;;;;;;6024755;29;20539;-70
2023/12/13 09:56:53;;;;;;;2.93;2.73;;;;;;;;;;6024902;29;20306;-69
2023/12/13 09:59:57;;;;;;;2.47;2.27;;;;;;;;;;6024082;29;20302;-69
2023/12/13 10:03:01;;;;;;;2.73;2.53;;;;;;;;;;6022474;29;26111;-68
2023/12/13 10:06:07;;;;;;;2.57;2.47;;;;;;;;;;6031455;29;20297;-70
2023/12/13 10:09:11;;;;;;;2.63;2.47;;;;;;;;;;6019562;29;20300;-69
2023/12/13 10:12:16;;;;;;;2.70;2.70;;;;;;;;;;6018883;29;20299;-69
2023/12/13 10:15:24;;;;;;;2.70;2.57;;;;;;;;;;6011229;29;20292;-70
2023/12/13 10:18:31;;;;;;;3.00;2.90;;;;;;;;;;6027607;29;20298;-70
2023/12/13 10:21:37;;;;;;;2.90;2.80;;;;;;;;;;6044739;29;20325;-70
2023/12/13 10:24:42;;;;;;;3.03;2.93;;;;;;;;;;6021997;29;20504;-69
2023/12/13 10:27:46;;;;;;;2.80;2.70;;;;;;;;;;6000464;29;20306;-69
2023/12/13 10:30:50;;;;;;;2.93;2.83;;;;;;;;;;6002642;29;20321;-70
2023/12/13 10:33:54;;;;;;;3.40;3.10;;;;;;;;;;5989750;29;20241;-71
2023/12/13 10:37:00;;;;;;;3.00;2.80;;;;;;;;;;6001862;29;20301;-70
2023/12/13 10:40:06;;;;;;;3.20;3.10;;;;;;;;;;6001448;29;20295;-71
2023/12/13 10:43:11;;;;;;;2.77;2.67;;;;;;;;;;6001209;29;20319;-70
2023/12/13 10:46:17;;;;;;;3.00;2.87;;;;;;;;;;6001923;29;20609;-69
2023/12/13 10:49:22;;;;;;;2.80;2.70;;;;;;;;;;6001066;29;20305;-72
2023/12/13 10:52:29;;;;;;;3.20;2.90;;;;;;;;;;6001332;29;20305;-69
2023/12/13 10:55:33;;;;;;;3.23;3.03;;;;;;;;;;6013850;29;20297;-70
2023/12/13 10:58:37;;;;;;;3.90;3.67;;;;;;;;;;6001141;29;20310;-69
2023/12/13 11:01:42;;;;;;;3.47;3.30;;;;;;;;;;6001285;29;20297;-69
2023/12/13 11:04:46;;;;;;;3.70;3.40;;;;;;;;;;5998354;29;20301;-69
2023/12/13 11:07:52;;;;;;;3.00;2.80;;;;;;;;;;6006840;29;20306;-69
2023/12/13 11:11:03;;;;;;;2.90;2.80;;;;;;;;;;5999020;29;20302;-70
2023/12/13 11:14:07;;;;;;;3.50;3.40;;;;;;;;;;6026784;29;20587;-71
2023/12/13 11:17:14;;;;;;;3.43;3.23;;;;;;;;;;6023959;29;20237;-70
2023/12/13 11:20:18;;;;;;;3.20;2.90;;;;;;;;;;6023594;29;20302;-70
2023/12/13 11:23:28;;;;;;;5.73;4.27;;;;;;;;;;6012845;29;20307;-70
2023/12/13 11:26:33;;;;;;;3.43;3.33;;;;;;;;;;6023597;29;20295;-69
2023/12/13 11:29:37;;;;;;;3.40;3.20;;;;;;;;;;6022915;29;20545;-70
2023/12/13 11:32:43;;;;;;;3.37;3.17;;;;;;;;;;6022581;29;20302;-68
2023/12/13 11:35:48;;;;;;;4.13;2.80;;;;;;;;;;6022984;29;20471;-70
2023/12/13 11:38:56;;;;;;;3.73;3.17;;;;;;;;;;6022340;29;20298;-69
2023/12/13 11:42:00;;;;;;;3.00;2.90;;;;;;;;;;6023420;29;20306;-69
2023/12/13 11:45:05;;;;;;;3.50;3.30;;;;;;;;;;6022348;29;20303;-69
2023/12/13 11:48:09;;;;;;;3.07;2.90;;;;;;;;;;6022760;29;20320;-70
2023/12/13 11:51:13;;;;;;;2.80;2.60;;;;;;;;;;6013474;29;20306;-70
2023/12/13 11:54:18;;;;;;;2.50;2.40;;;;;;;;;;6022322;29;20321;-70
2023/12/13 11:57:22;;;;;;;3.13;2.40;;;;;;;;;;6021771;29;20294;-69
2023/12/13 12:00:26;;;;;;;3.10;2.90;;;;;;;;;;6022149;29;20326;-69
2023/12/13 12:03:30;;;;;;;2.50;2.40;;;;;;;;;;6035972;29;20298;-70
2023/12/13 12:06:34;;;;;;;2.83;2.63;;;;;;;;;;6022342;29;20589;-70
2023/12/13 12:09:40;;;;;;;2.40;2.40;;;;;;;;;;6021981;29;20298;-69
2023/12/13 12:12:44;;;;;;;2.40;2.30;;;;;;;;;;6011658;29;20307;-69
2023/12/13 12:15:48;;;;;;;2.60;2.50;;;;;;;;;;6005687;29;20297;-71
2023/12/13 12:18:55;;;;;;;1.93;1.93;;;;;;;;;;6021583;29;20468;-69
2023/12/13 12:22:02;;;;;;;3.03;2.33;;;;;;;;;;6022202;29;20306;-69
2023/12/13 12:25:08;;;;;;;2.23;2.23;;;;;;;;;;6021264;29;20402;-69
2023/12/13 12:28:12;;;;;;;2.50;2.40;;;;;;;;;;6021569;29;20315;-69
2023/12/13 12:31:16;;;;;;;2.47;2.40;;;;;;;;;;6022411;29;20300;-69
2023/12/13 12:34:23;;;;;;;2.73;2.63;;;;;;;;;;6021138;29;20314;-70
2023/12/13 12:37:28;;;;;;;2.67;2.53;;;;;;;;;;6020135;29;20483;-69
2023/12/13 12:40:33;;;;;;;2.77;2.67;;;;;;;;;;6022179;29;20587;-70
2023/12/13 12:43:39;;;;;;;2.77;2.67;;;;;;;;;;6021504;29;20562;-69
2023/12/13 12:46:43;;;;;;;2.40;2.30;;;;;;;;;;6021981;29;20484;-69
2023/12/13 12:49:48;;;;;;;2.63;2.53;;;;;;;;;;6021407;29;20308;-69
2023/12/13 12:52:52;;;;;;;2.60;2.50;;;;;;;;;;6021420;29;20301;-69
2023/12/13 12:55:57;;;;;;;2.40;2.30;;;;;;;;;;6021154;29;20494;-70
2023/12/13 12:59:04;;;;;;;3.17;2.67;;;;;;;;;;6021224;29;20297;-69
2023/12/13 13:02:09;;;;;;;2.60;2.50;;;;;;;;;;6021687;29;20310;-69
2023/12/13 13:05:13;;;;;;;2.10;2.10;;;;;;;;;;6021121;29;20305;-69
2023/12/13 13:08:17;;;;;;;2.70;2.60;;;;;;;;;;6019915;29;20298;-70
2023/12/13 13:11:23;;;;;;;2.60;2.50;;;;;;;;;;6021363;29;20306;-69
2023/12/13 13:14:26;;;;;;;2.47;2.37;;;;;;;;;;5998282;29;20366;-70
2023/12/13 13:17:30;;;;;;;2.33;2.33;;;;;;;;;;6016824;29;20431;-70
2023/12/13 13:20:38;;;;;;;2.50;2.40;;;;;;;;;;6020746;29;20295;-69
2023/12/13 13:23:43;;;;;;;3.03;2.60;;;;;;;;;;6020707;29;20307;-70
2023/12/13 13:26:48;;;;;;;2.57;2.47;;;;;;;;;;6024278;29;20301;-70
2023/12/13 13:29:52;;;;;;;2.27;2.23;;;;;;;;;;6025060;29;20301;-70
2023/12/13 13:32:56;;;;;;;3.10;2.90;;;;;;;;;;6025445;29;20322;-70
2023/12/13 13:36:00;;;;;;;2.40;2.30;;;;;;;;;;6025393;29;20306;-69
2023/12/13 13:39:09;;;;;;;2.83;2.60;;;;;;;;;;6023760;29;20290;-69
2023/12/13 13:42:14;;;;;;;2.63;2.47;;;;;;;;;;6025186;29;20300;-69
2023/12/13 13:45:18;;;;;;;2.47;2.33;;;;;;;;;;6025331;29;20313;-69
2023/12/13 13:48:22;;;;;;;2.97;2.77;;;;;;;;;;6025222;29;20567;-70
2023/12/13 13:51:27;;;;;;;3.03;2.50;;;;;;;;;;6025405;29;20297;-69
2023/12/13 13:54:31;;;;;;;2.23;2.13;;;;;;;;;;6023619;29;20487;-69
2023/12/13 13:57:36;;;;;;;2.97;2.87;;;;;;;;;;6025236;29;20297;-70
2023/12/13 14:00:40;;;;;;;3.10;2.90;;;;;;;;;;6024947;29;20294;-69
2023/12/13 14:03:44;;;;;;;2.70;2.60;;;;;;;;;;6024146;29;20298;-70
2023/12/13 14:06:48;;;;;;;2.80;2.70;;;;;;;;;;6025216;29;20308;-70
2023/12/13 14:09:52;;;;;;;2.80;2.70;;;;;;;;;;6024422;29;20299;-69
2023/12/13 14:12:57;;;;;;;3.03;2.77;;;;;;;;;;6013020;29;20296;-70
2023/12/13 14:16:01;;;;;;;2.73;2.53;;;;;;;;;;6009216;29;20314;-69
2023/12/13 14:19:05;;;;;;;2.77;2.67;;;;;;;;;;6024474;29;20589;-71
2023/12/13 14:22:10;;;;;;;2.87;2.67;;;;;;;;;;6023850;29;20316;-69
2023/12/13 14:25:14;;;;;;;3.00;2.80;;;;;;;;;;6024538;29;20316;-67
2023/12/13 14:28:19;;;;;;;2.63;2.53;;;;;;;;;;6024788;29;20304;-71
2023/12/13 14:31:24;;;;;;;3.30;3.00;;;;;;;;;;6024673;29;20306;-71
2023/12/13 14:34:28;;;;;;;3.13;2.90;;;;;;;;;;6023926;29;20300;-71
2023/12/13 14:37:34;;;;;;;3.17;2.97;;;;;;;;;;6023717;29;20462;-69
2023/12/13 14:40:39;;;;;;;2.93;2.80;;;;;;;;;;6024576;29;20493;-70
2023/12/13 14:43:44;;;;;;;2.80;2.70;;;;;;;;;;6024317;29;20305;-71
2023/12/13 14:46:48;;;;;;;2.67;2.53;;;;;;;;;;6024338;29;20294;-70
2023/12/13 14:49:52;;;;;;;2.90;2.80;;;;;;;;;;6022609;29;20313;-70
2023/12/13 14:52:56;;;;;;;2.73;2.63;;;;;;;;;;6023567;29;20295;-71
2023/12/13 14:56:00;;;;;;;3.30;3.20;;;;;;;;;;6023663;29;20306;-71
2023/12/13 14:59:06;;;;;;;2.90;2.80;;;;;;;;;;6023355;29;20300;-73
2023/12/13 15:02:10;;;;;;;3.33;3.20;;;;;;;;;;6023614;29;20321;-74
2023/12/13 15:05:15;;;;;;;3.07;2.97;;;;;;;;;;6023991;29;20318;-69
2023/12/13 15:08:19;;;;;;;3.40;3.10;;;;;;;;;;6021123;29;20319;-69
2023/12/13 15:11:23;;;;;;;3.00;2.87;;;;;;;;;;6030478;29;20304;-69
2023/12/13 15:14:29;;;;;;;3.07;2.97;;;;;;;;;;6022755;29;20337;-69
2023/12/13 15:17:34;;;;;;;2.97;2.87;;;;;;;;;;6030316;29;20470;-69
2023/12/13 15:20:38;;;;;;;2.73;2.63;;;;;;;;;;6012853;29;20301;-70
2023/12/13 15:23:43;;;;;;;3.43;3.13;;;;;;;;;;6023485;29;20300;-71
2023/12/13 15:26:47;;;;;;;3.20;3.00;;;;;;;;;;6014707;29;20298;-69
2023/12/13 15:29:53;;;;;;;3.33;3.13;;;;;;;;;;6000073;29;20302;-69
2023/12/13 15:32:57;;;;;;;5.00;3.03;;;;;;;;;;5999758;29;20465;-68
2023/12/13 15:36:01;;;;;;;3.07;2.97;;;;;;;;;;6000005;29;20571;-69
2023/12/13 15:39:04;;;;;;;2.80;2.70;;;;;;;;;;5999592;29;20301;-69
2023/12/13 15:42:08;;;;;;;3.10;2.90;;;;;;;;;;6014226;29;20314;-69
2023/12/13 15:45:14;;;;;;;3.20;3.10;;;;;;;;;;5999947;29;20322;-69
2023/12/13 15:48:18;;;;;;;2.67;2.47;;;;;;;;;;5999068;29;20299;-69
2023/12/13 15:51:22;;;;;;;3.13;2.93;;;;;;;;;;6000216;29;20302;-69
2023/12/13 15:54:26;;;;;;;3.17;3.07;;;;;;;;;;5999455;29;20304;-68
2023/12/13 15:57:30;;;;;;;3.00;2.90;;;;;;;;;;6000093;29;20627;-68
2023/12/13 16:00:37;;;;;;;3.10;3.00;;;;;;;;;;6000419;29;20309;-69
2023/12/13 16:03:41;;;;;;;3.30;3.20;;;;;;;;;;5999598;29;20293;-69
2023/12/13 16:06:45;;;;;;;3.87;3.43;;;;;;;;;;5999389;29;20307;-69
2023/12/13 16:09:52;;;;;;;3.87;3.60;;;;;;;;;;5989272;29;20300;-69
2023/12/13 16:12:56;;;;;;;3.83;3.17;;;;;;;;;;6010021;29;20321;-69
2023/12/13 16:16:02;;;;;;;3.60;3.30;;;;;;;;;;6021847;29;20319;-69
2023/12/13 16:19:06;;;;;;;3.20;3.10;;;;;;;;;;6021989;29;20575;-69
2023/12/13 16:22:10;;;;;;;3.27;3.13;;;;;;;;;;6022263;29;20340;-71
2023/12/13 16:25:15;;;;;;;3.60;3.43;;;;;;;;;;6021962;29;20298;-69
2023/12/13 16:28:19;;;;;;;5.00;3.70;;;;;;;;;;6021928;29;20581;-69
2023/12/13 16:31:25;;;;;;;3.93;3.50;;;;;;;;;;6021943;29;20304;-69
2023/12/13 16:34:29;;;;;;;4.30;4.10;;;;;;;;;;6021245;29;20601;-69
2023/12/13 16:37:35;;;;;;;4.53;4.30;;;;;;;;;;6020708;29;20302;-69
2023/12/13 16:40:40;;;;;;;3.97;3.73;;;;;;;;;;6020269;29;20588;-70
2023/12/13 16:43:44;;;;;;;3.83;3.63;;;;;;;;;;6021882;29;20318;-69
2023/12/13 16:46:49;;;;;;;3.90;3.70;;;;;;;;;;6021419;29;20301;-70
2023/12/13 16:49:53;;;;;;;3.80;3.60;;;;;;;;;;6020582;29;20295;-70
2023/12/13 16:52:58;;;;;;;3.43;3.23;;;;;;;;;;6020532;29;20301;-69
2023/12/13 16:56:02;;;;;;;3.50;3.30;;;;;;;;;;6021034;29;20321;-69
2023/12/13 16:59:06;;;;;;;3.50;3.40;;;;;;;;;;6021086;29;20307;-69
2023/12/13 17:02:12;;;;;;;7.07;4.63;;;;;;;;;;6021209;29;20305;-70
2023/12/13 17:05:16;;;;;;;17.43;7.20;;;;;;;;;;6020803;29;20568;-69
2023/12/13 17:08:20;;;;;;;4.80;4.40;;;;;;;;;;6020843;29;20309;-69
2023/12/13 17:11:24;;;;;;;5.57;4.93;;;;;;;;;;6021128;29;20476;-69
2023/12/13 17:14:28;;;;;;;4.43;4.13;;;;;;;;;;6020861;29;20290;-69
2023/12/13 17:17:33;;;;;;;4.40;4.13;;;;;;;;;;6020463;29;20309;-69
2023/12/13 17:20:37;;;;;;;4.83;4.40;;;;;;;;;;6020971;29;20302;-70
2023/12/13 17:23:41;;;;;;;4.87;4.40;;;;;;;;;;6020397;29;20466;-70
2023/12/13 17:26:45;;;;;;;4.97;4.57;;;;;;;;;;6019597;29;20476;-70
2023/12/13 17:29:50;;;;;;;5.53;5.03;;;;;;;;;;6020707;29;20300;-70
2023/12/13 17:32:57;;;;;;;4.93;4.53;;;;;;;;;;6019429;29;20478;-70
2023/12/13 17:36:01;;;;;;;4.83;4.57;;;;;;;;;;6020519;29;20311;-70
2023/12/13 17:39:05;;;;;;;4.87;4.57;;;;;;;;;;6020290;29;20308;-70
2023/12/13 17:42:09;;;;;;;5.00;4.70;;;;;;;;;;6020808;29;20316;-71
2023/12/13 17:45:13;;;;;;;4.60;4.20;;;;;;;;;;6020195;29;20306;-70
2023/12/13 17:48:19;;;;;;;4.90;4.67;;;;;;;;;;6020636;29;20309;-70
2023/12/13 17:51:23;;;;;;;4.63;4.33;;;;;;;;;;6020746;29;20313;-70
2023/12/13 17:54:27;;;;;;;5.30;4.80;;;;;;;;;;6020482;29;20298;-68
2023/12/13 17:57:31;;;;;;;5.00;4.60;;;;;;;;;;6020202;29;20260;-69
2023/12/13 18:00:34;;;;;;;5.20;4.70;;;;;;;;;;6020621;29;20309;-68
2023/12/13 18:03:40;;;;;;;5.03;4.53;;;;;;;;;;6020279;29;20311;-68
2023/12/13 18:06:46;;;;;;;5.83;4.80;;;;;;;;;;6020213;29;20323;-68
2023/12/13 18:09:50;;;;;;;5.07;4.47;;;;;;;;;;6020623;29;20296;-69
2023/12/13 18:12:54;;;;;;;5.03;4.73;;;;;;;;;;6012586;29;20302;-69
2023/12/13 18:15:58;;;;;;;5.00;4.60;;;;;;;;;;6009218;29;20603;-69
2023/12/13 18:19:03;;;;;;;4.67;4.37;;;;;;;;;;6024176;29;20295;-68
2023/12/13 18:22:07;;;;;;;4.50;4.20;;;;;;;;;;6024300;29;20299;-69
2023/12/13 18:25:11;;;;;;;5.07;4.77;;;;;;;;;;6024308;29;20295;-70
2023/12/13 18:28:15;;;;;;;6.10;5.60;;;;;;;;;;6023877;29;20300;-70